Portada
METAR-TAF:

METAR-TAF

Aeropuertos :

Aeropuerto Internacional de Tan Son Nhat

Ciudad Ho Chi Minh, Vietnam

latitud: 10-49N, longitud: 106-40E, altitud: 19 m

Observación

El informe se hizo hace 35 minutos, a las 01:00 UTC
Viento 8 kt del oeste-suroeste
Temperatura 29°C
Humedad 89%
Presión 1010 hPa
Visibilidad 10 km o más
Cielo nuboso a una altura de 1700 ft

METAR: VVTS 220100Z 25008KT 9999 BKN017 29/27 Q1010 NOSIG

Hora: 08:35 (01:35 UTC)

Pronóstico

El informe se hizo hace 2 horas y 35 minutos, a las 23:00 UTC
Pronóstico válido del 22 a las 00 UTC al 23 a las 06 UTC
Viento 8 kt del oeste
Visibilidad 10 km o más
Nubes dispersas a una altura de 1700 ft
Nubes dispersas a una altura de 4000 ft
Temporalmente
del 22 a las 07 UTC al 22 a las 10 UTC
Cielo nuboso a una altura de 1200 ft
Escasas nubes a una altura de 1500 ft, Cumulonimbus.
tormenta

TAF: VVTS 212300Z 2200/2306 26008KT 9999 SCT017 SCT040 TEMPO 2207/2210 TS BKN012 FEW015CB

Observaciones y pronósticos meteorológicos de más de 4000 aeropuertos (mensajes METAR y TAF).

Los puntos amarillos y rojos representan las estaciones disponibles.

Ponga el ratón en el punto deseado para ver el nombre de la estación.

Haga clic para ver las observaciones y los pronósticos meteorológicos.

Para cambiar el mapa : haga clic en los botones verdes con una cruz de color negro para hacer un zoom, en el botón verde con un guión para alejar o en las flechas verdes para mapas adyacentes.


METAR-TAF: